Terminal Aerodrome Forecast
Issued by NWS

Home | Current Version | Previous Version | Text Only | Print | Product List | Glossary Off
Versions: 1 2 3 4 5 6 7 8 9 10 11 12 13 14 15

000
FTUS41 KCLE 181145
TAFFDY
TAF
KFDY 181145Z 1812/1912 27008KT P6SM OVC025
     FM181400 21008KT P6SM SCT035
     FM182000 16008KT P6SM BKN250
     FM190800 18010KT P6SM OVC080
     FM191100 18013KT 6SM -RA OVC025=

USA.gov is the U.S. government's official web portal to all federal, state and local government web resources and services.